Time;durP1;ratioP1;P1;durP2;ratioP2;P2;SDS_P1;SDS_P2;PMS_P1;PMS_P2;Temp;Humidity;BMP_temperature;BMP_pressure;BME280_temperature;BME280_humidity;BME280_pressure;Samples;Min_cycle;Max_cycle;Signal;HPM_P1;HPM_P2
2022/07/19 00:01:08;;;;;;;3.47;0.70;;;20.20;59.50;;;;;;4809056;29;20061;-91
2022/07/19 00:03:36;;;;;;;4.05;0.60;;;20.20;59.70;;;;;;4805700;29;20046;-89
2022/07/19 00:06:04;;;;;;;2.60;0.63;;;20.10;59.50;;;;;;4804513;29;20429;-90
2022/07/19 00:08:31;;;;;;;3.50;0.55;;;20.10;59.60;;;;;;4807163;29;20042;-90
2022/07/19 00:10:58;;;;;;;1.80;0.75;;;20.10;60.50;;;;;;4824183;29;20042;-90
2022/07/19 00:13:26;;;;;;;3.65;0.52;;;20.10;60.00;;;;;;4807719;29;20107;-90
2022/07/19 00:15:53;;;;;;;5.65;0.80;;;20.10;60.30;;;;;;4810253;29;20046;-90
2022/07/19 00:18:21;;;;;;;3.90;0.60;;;20.00;60.20;;;;;;4807860;29;20039;-91
2022/07/19 00:20:48;;;;;;;2.50;0.40;;;20.00;61.00;;;;;;4808394;29;20051;-90
2022/07/19 00:23:16;;;;;;;3.20;0.70;;;19.90;60.90;;;;;;4808011;29;20103;-90
2022/07/19 00:25:43;;;;;;;4.50;0.95;;;19.90;61.10;;;;;;4806178;29;20054;-91
2022/07/19 00:28:11;;;;;;;3.38;1.02;;;19.80;61.40;;;;;;4824368;29;20057;-90
2022/07/19 00:30:38;;;;;;;4.32;1.10;;;19.80;62.30;;;;;;4823978;29;20111;-90
2022/07/19 00:33:08;;;;;;;3.67;0.70;;;19.70;61.80;;;;;;4804444;29;20057;-90
2022/07/19 00:35:39;;;;;;;5.63;1.33;;;19.70;62.10;;;;;;4807800;29;20058;-90
2022/07/19 00:38:13;;;;;;;3.28;0.70;;;19.70;62.50;;;;;;4805518;29;20058;-91
2022/07/19 00:40:41;;;;;;;4.53;1.27;;;19.70;62.60;;;;;;4801912;29;20050;-90
2022/07/19 00:43:10;;;;;;;4.78;0.77;;;19.70;62.80;;;;;;4801771;29;20050;-90
2022/07/19 00:45:38;;;;;;;3.00;0.63;;;19.60;62.90;;;;;;4825756;29;20085;-91
2022/07/19 00:48:06;;;;;;;3.13;0.60;;;19.70;62.50;;;;;;4819584;29;20058;-90
2022/07/19 00:50:33;;;;;;;4.75;0.60;;;19.60;62.40;;;;;;4803845;29;20077;-90
2022/07/19 00:53:05;;;;;;;5.97;1.25;;;19.60;62.60;;;;;;4805699;29;20054;-90
2022/07/19 00:55:38;;;;;;;4.82;0.80;;;19.60;63.80;;;;;;4810266;29;20133;-91
2022/07/19 00:58:06;;;;;;;3.05;0.52;;;19.60;63.80;;;;;;4825761;29;20574;-91
2022/07/19 01:00:34;;;;;;;3.30;0.70;;;19.50;63.80;;;;;;4807283;29;20046;-89
2022/07/19 01:03:02;;;;;;;1.85;0.55;;;19.50;63.50;;;;;;4797992;29;20154;-90
2022/07/19 01:05:31;;;;;;;1.00;0.52;;;19.40;63.80;;;;;;4820599;29;20038;-90
2022/07/19 01:08:06;;;;;;;3.35;0.70;;;19.40;64.50;;;;;;4807206;29;20049;-90
2022/07/19 01:10:34;;;;;;;4.00;0.52;;;19.40;64.50;;;;;;4806431;29;20042;-90
2022/07/19 01:13:02;;;;;;;3.13;0.82;;;19.30;64.20;;;;;;4803846;29;20050;-90
2022/07/19 01:15:29;;;;;;;2.97;0.82;;;19.30;64.70;;;;;;4814830;29;20075;-89
2022/07/19 01:22:08;;;;;;;2.10;0.40;;;19.30;65.20;;;;;;4823459;24;20059;-89
2022/07/19 01:24:37;;;;;;;5.85;0.70;;;19.30;64.90;;;;;;4773914;30;20055;-89
2022/07/19 01:27:08;;;;;;;3.65;1.05;;;19.30;64.30;;;;;;4781671;29;20075;-88
2022/07/19 01:29:36;;;;;;;2.40;0.68;;;19.20;64.30;;;;;;4785798;30;20058;-88
2022/07/19 01:32:05;;;;;;;3.30;0.85;;;19.20;64.80;;;;;;4782363;29;20588;-88
2022/07/19 01:34:33;;;;;;;3.00;0.70;;;19.20;64.10;;;;;;4764922;30;20416;-87
2022/07/19 01:40:43;;;;;;;6.25;0.73;;;19.20;64.60;;;;;;4756782;30;20531;-89
2022/07/19 01:43:10;;;;;;;2.45;0.80;;;19.20;64.50;;;;;;4783978;30;20058;-88
2022/07/19 01:46:07;;;;;;;4.30;0.75;;;19.20;63.60;;;;;;4766892;30;20140;-88
2022/07/19 01:49:39;;;;;;;3.33;0.60;;;19.20;63.90;;;;;;4883293;24;20051;-87
2022/07/19 01:55:20;;;;;;;2.65;0.57;;;19.00;64.30;;;;;;4830772;24;20074;-89
2022/07/19 01:58:02;;;;;;;4.53;0.88;;;19.00;63.10;;;;;;4768017;30;20079;-88
2022/07/19 02:18:49;;;;;;;2.90;0.57;;;18.90;64.00;;;;;;4978044;24;20055;-84
2022/07/19 02:22:30;;;;;;;3.15;0.50;;;18.80;62.20;;;;;;4713428;30;20052;-83
2022/07/19 02:34:42;;;;;;;3.22;0.50;;;18.80;62.00;;;;;;4965504;24;20528;-83
2022/07/19 02:37:59;;;;;;;4.18;0.90;;;18.80;62.20;;;;;;4756179;30;20059;-83
2022/07/19 02:40:55;;;;;;;3.10;0.77;;;18.70;61.90;;;;;;4745445;30;20080;-82
2022/07/19 02:44:19;;;;;;;3.58;0.32;;;18.70;62.00;;;;;;4648610;30;20138;-82
2022/07/19 02:48:21;;;;;;;4.30;0.63;;;18.80;62.00;;;;;;4576515;31;20408;-84
2022/07/19 02:51:59;;;;;;;1.13;0.30;;;18.70;61.40;;;;;;4531640;31;20467;-83
2022/07/19 02:55:09;;;;;;;3.70;0.50;;;18.70;61.70;;;;;;4508690;31;20050;-84
2022/07/19 02:58:53;;;;;;;3.30;0.35;;;18.60;61.30;;;;;;4469631;32;20060;-83
2022/07/19 03:31:33;;;;;;;3.90;0.68;;;18.40;64.30;;;;;;5745746;24;20021;-83
2022/07/19 04:45:07;;;;;;;3.72;0.80;;;19.50;64.70;;;;;;4780079;29;20043;-90
2022/07/19 04:47:34;;;;;;;3.55;0.50;;;19.60;63.60;;;;;;4770488;29;20039;-91
2022/07/19 04:50:02;;;;;;;3.20;0.80;;;19.70;63.00;;;;;;4767770;30;20059;-91
2022/07/19 04:52:30;;;;;;;5.03;0.77;;;19.80;62.50;;;;;;4748521;29;20055;-89
2022/07/19 04:54:57;;;;;;;3.25;0.60;;;19.90;63.20;;;;;;4772400;30;20055;-91
2022/07/19 04:57:24;;;;;;;3.35;1.60;;;20.00;62.40;;;;;;4757457;30;20536;-89
2022/07/19 04:59:52;;;;;;;2.38;0.65;;;20.10;62.60;;;;;;4769534;30;20047;-92
2022/07/19 05:02:19;;;;;;;3.97;1.13;;;20.20;62.60;;;;;;4758736;29;20080;-90
2022/07/19 05:04:46;;;;;;;4.43;1.10;;;20.30;61.30;;;;;;4759772;30;20496;-92
2022/07/19 05:07:14;;;;;;;6.47;1.42;;;20.40;61.10;;;;;;4775850;29;20493;-91
2022/07/19 05:09:42;;;;;;;3.05;0.75;;;20.60;60.30;;;;;;4746798;30;20051;-92
2022/07/19 05:12:10;;;;;;;9.65;1.45;;;20.70;61.40;;;;;;4790444;29;20055;-92
2022/07/19 05:14:38;;;;;;;4.68;0.60;;;20.90;60.40;;;;;;4760733;30;20071;-92
2022/07/19 05:17:05;;;;;;;8.27;1.70;;;21.10;60.10;;;;;;4761287;29;20058;-91
2022/07/19 05:19:32;;;;;;;2.55;0.80;;;21.20;59.50;;;;;;4771835;29;20059;-90
2022/07/19 05:22:00;;;;;;;2.10;0.60;;;21.40;59.30;;;;;;4760429;29;20071;-91
2022/07/19 05:24:27;;;;;;;5.13;0.85;;;21.60;58.60;;;;;;4790809;29;20082;-91
2022/07/19 05:26:54;;;;;;;3.25;1.10;;;21.70;57.60;;;;;;4788290;29;20070;-91
2022/07/19 05:29:22;;;;;;;7.90;0.82;;;21.90;58.00;;;;;;4738793;30;20078;-91
2022/07/19 05:31:50;;;;;;;3.15;1.00;;;22.10;55.90;;;;;;4758406;29;20059;-90
2022/07/19 05:34:18;;;;;;;3.50;0.70;;;22.30;54.70;;;;;;4761100;30;20055;-90
2022/07/19 05:36:45;;;;;;;1.38;0.50;;;22.50;53.80;;;;;;4775850;29;20074;-91
2022/07/19 05:39:12;;;;;;;4.55;0.68;;;22.60;54.30;;;;;;4737666;30;20059;-91
2022/07/19 05:41:40;;;;;;;2.53;0.70;;;22.80;53.60;;;;;;4790140;29;20059;-90
2022/07/19 05:44:07;;;;;;;5.25;1.10;;;23.00;52.60;;;;;;4759980;30;20312;-92
2022/07/19 05:46:40;;;;;;;2.25;0.80;;;23.10;52.70;;;;;;4759308;30;20051;-90
2022/07/19 05:49:11;;;;;;;5.65;0.82;;;23.30;51.70;;;;;;4760718;30;20193;-91
2022/07/19 05:51:38;;;;;;;2.83;0.68;;;23.40;51.20;;;;;;4776001;29;20065;-90
2022/07/19 05:54:07;;;;;;;1.60;0.40;;;23.60;52.40;;;;;;4783511;29;20063;-90
2022/07/19 05:56:34;;;;;;;4.15;0.60;;;23.70;51.10;;;;;;4739894;30;20087;-89
2022/07/19 05:59:02;;;;;;;1.88;0.40;;;23.80;48.90;;;;;;4757161;29;20138;-87
2022/07/19 06:01:30;;;;;;;1.63;0.30;;;24.00;50.50;;;;;;4785030;29;20493;-90
2022/07/19 06:03:59;;;;;;;3.30;0.50;;;24.20;49.40;;;;;;4758899;29;20520;-89
2022/07/19 06:06:29;;;;;;;3.22;0.77;;;24.30;48.90;;;;;;4774241;29;20040;-87
2022/07/19 06:08:58;;;;;;;4.30;1.38;;;24.50;49.50;;;;;;4747420;30;20055;-89
2022/07/19 06:11:27;;;;;;;0.85;0.20;;;24.60;48.10;;;;;;4759516;29;20054;-91
2022/07/19 06:13:54;;;;;;;1.55;0.40;;;24.80;48.20;;;;;;4777307;29;20094;-91
2022/07/19 06:16:22;;;;;;;1.58;0.30;;;24.90;49.90;;;;;;4764035;29;20051;-88
2022/07/19 06:18:50;;;;;;;3.80;0.38;;;24.90;49.60;;;;;;4790437;29;20200;-88
2022/07/19 06:21:20;;;;;;;2.75;0.60;;;25.10;47.60;;;;;;4763318;29;20999;-91
2022/07/19 06:23:47;;;;;;;0.95;0.30;;;25.20;47.20;;;;;;4793059;29;20062;-90
2022/07/19 06:26:16;;;;;;;2.10;0.40;;;25.20;47.10;;;;;;4790439;29;20611;-90
2022/07/19 06:28:43;;;;;;;2.58;0.20;;;25.30;48.30;;;;;;4773176;29;20055;-89
2022/07/19 06:31:12;;;;;;;1.85;0.50;;;25.50;47.80;;;;;;4777233;29;20055;-89
2022/07/19 06:33:41;;;;;;;2.17;0.22;;;25.60;46.50;;;;;;4756301;29;20046;-88
2022/07/19 06:36:09;;;;;;;2.63;0.32;;;25.70;46.80;;;;;;4763563;30;20071;-91
2022/07/19 06:38:37;;;;;;;2.65;0.45;;;25.80;45.80;;;;;;4761067;30;20144;-90
2022/07/19 06:41:05;;;;;;;1.58;0.20;;;25.90;47.50;;;;;;4763124;29;20063;-90
2022/07/19 06:43:33;;;;;;;3.90;0.38;;;26.00;45.40;;;;;;4763010;29;21516;-88
2022/07/19 06:46:00;;;;;;;6.57;0.50;;;26.20;45.20;;;;;;4788746;29;20409;-89
2022/07/19 06:48:28;;;;;;;2.78;0.40;;;26.30;45.30;;;;;;4794939;29;20051;-90
2022/07/19 06:50:55;;;;;;;2.20;0.60;;;26.20;44.40;;;;;;4790937;29;20089;-90
2022/07/19 06:53:23;;;;;;;2.13;0.20;;;26.40;44.30;;;;;;4760746;30;20059;-90
2022/07/19 06:55:50;;;;;;;3.30;0.50;;;26.40;44.10;;;;;;4758688;30;20066;-89
2022/07/19 06:58:18;;;;;;;4.50;0.32;;;26.50;44.20;;;;;;4761915;30;20059;-89
2022/07/19 07:00:48;;;;;;;4.90;0.40;;;26.60;44.60;;;;;;4748682;30;20059;-90
2022/07/19 07:03:17;;;;;;;3.40;0.25;;;26.80;46.00;;;;;;4763546;29;20061;-91
2022/07/19 07:05:45;;;;;;;2.13;0.40;;;26.80;45.80;;;;;;4764598;30;20055;-89
2022/07/19 07:08:12;;;;;;;2.17;0.43;;;27.00;46.50;;;;;;4759036;29;20456;-86
2022/07/19 07:10:40;;;;;;;5.60;0.40;;;27.20;45.60;;;;;;4757949;30;20058;-87
2022/07/19 07:13:07;;;;;;;6.68;0.57;;;27.20;43.80;;;;;;4748311;29;20062;-86
2022/07/19 07:15:34;;;;;;;2.47;0.50;;;27.40;44.50;;;;;;4752438;30;20063;-87
2022/07/19 07:18:01;;;;;;;3.65;0.40;;;27.40;45.20;;;;;;4767304;29;20058;-86
2022/07/19 07:20:29;;;;;;;3.17;0.40;;;27.50;44.30;;;;;;4753921;29;20126;-84
2022/07/19 07:22:56;;;;;;;1.20;0.30;;;27.50;43.40;;;;;;4756834;30;20061;-84
2022/07/19 07:25:23;;;;;;;3.13;0.57;;;27.60;43.20;;;;;;4756770;29;20195;-84
2022/07/19 07:27:50;;;;;;;0.63;0.20;;;27.70;43.30;;;;;;4736878;29;20047;-86
2022/07/19 07:30:18;;;;;;;4.15;0.43;;;27.80;42.30;;;;;;4770102;29;20055;-86
2022/07/19 07:32:45;;;;;;;3.75;0.40;;;27.80;42.90;;;;;;4762864;29;20429;-82
2022/07/19 07:35:12;;;;;;;0.95;0.38;;;27.90;43.60;;;;;;4756890;29;20078;-86
2022/07/19 07:37:40;;;;;;;1.13;0.30;;;28.00;43.70;;;;;;4767854;29;20047;-87
2022/07/19 07:40:07;;;;;;;3.42;0.50;;;27.90;43.00;;;;;;4728093;30;20101;-86
2022/07/19 07:42:35;;;;;;;1.98;0.20;;;27.90;43.50;;;;;;4762974;29;20059;-86
2022/07/19 07:45:03;;;;;;;6.15;0.40;;;28.00;42.60;;;;;;4770289;29;20060;-86
2022/07/19 07:47:30;;;;;;;1.33;0.30;;;28.00;43.80;;;;;;4748413;30;20209;-86
2022/07/19 07:49:57;;;;;;;4.90;0.40;;;28.10;44.50;;;;;;4756180;30;20057;-87
2022/07/19 07:52:25;;;;;;;2.42;0.45;;;28.30;42.50;;;;;;4752304;30;20075;-82
2022/07/19 07:54:52;;;;;;;1.55;0.30;;;28.40;43.20;;;;;;4740413;30;20059;-83
2022/07/19 07:57:40;;;;;;;3.15;0.47;;;28.40;41.90;;;;;;4748745;30;20112;-85
2022/07/19 08:00:11;;;;;;;2.72;0.40;;;28.60;41.20;;;;;;4752781;30;20061;-84
2022/07/19 08:02:39;;;;;;;2.53;0.40;;;28.60;39.60;;;;;;4772908;30;20060;-84
2022/07/19 08:05:08;;;;;;;8.05;0.65;;;28.40;40.10;;;;;;4756604;30;20665;-83
2022/07/19 08:07:36;;;;;;;1.02;0.35;;;28.60;41.10;;;;;;4742467;29;20055;-82
2022/07/19 08:10:06;;;;;;;4.25;0.50;;;28.80;40.90;;;;;;4777478;29;20070;-84
2022/07/19 08:12:33;;;;;;;1.98;0.45;;;28.70;40.30;;;;;;4752097;30;20063;-83
2022/07/19 08:15:01;;;;;;;1.77;0.22;;;28.80;41.00;;;;;;4754791;29;20648;-83
2022/07/19 08:17:29;;;;;;;8.13;0.40;;;28.90;41.10;;;;;;4752017;30;20054;-83
2022/07/19 08:19:56;;;;;;;1.58;0.57;;;29.10;40.40;;;;;;4736019;29;20055;-84
2022/07/19 08:22:23;;;;;;;3.08;0.30;;;29.10;39.30;;;;;;4791359;29;20047;-89
2022/07/19 08:24:51;;;;;;;2.40;0.20;;;29.00;39.30;;;;;;4753919;29;20136;-87
2022/07/19 08:27:18;;;;;;;3.17;0.20;;;29.20;41.50;;;;;;4781841;29;20055;-88
2022/07/19 08:29:46;;;;;;;2.13;0.38;;;29.30;40.90;;;;;;4757371;30;20823;-89
2022/07/19 08:32:13;;;;;;;4.43;0.20;;;29.40;41.60;;;;;;4786250;29;20059;-84
2022/07/19 08:34:41;;;;;;;9.05;0.70;;;29.40;41.30;;;;;;4751747;29;20065;-88
2022/07/19 08:37:08;;;;;;;2.72;0.40;;;29.50;40.70;;;;;;4758044;29;20078;-85
2022/07/19 08:39:36;;;;;;;1.83;0.20;;;29.40;40.90;;;;;;4760403;30;20066;-85
2022/07/19 08:42:03;;;;;;;2.70;0.50;;;29.60;41.30;;;;;;4760635;30;20103;-84
2022/07/19 08:44:34;;;;;;;2.35;0.40;;;29.60;40.90;;;;;;4760424;29;20059;-87
2022/07/19 08:47:02;;;;;;;2.20;0.30;;;29.60;41.20;;;;;;4790377;29;20047;-85
2022/07/19 08:49:30;;;;;;;2.22;0.30;;;29.60;41.60;;;;;;4785084;29;20063;-88
2022/07/19 08:51:58;;;;;;;2.28;0.30;;;29.60;40.30;;;;;;4766475;29;20055;-89
2022/07/19 08:54:26;;;;;;;3.08;0.40;;;29.60;39.80;;;;;;4745690;30;20412;-84
2022/07/19 08:59:46;;;;;;;1.05;0.25;;;29.70;39.70;;;;;;4776210;29;20055;-87
2022/07/19 09:02:14;;;;;;;2.95;0.40;;;29.70;40.20;;;;;;4791987;29;20051;-85
2022/07/19 09:04:41;;;;;;;0.88;0.20;;;29.70;39.60;;;;;;4761782;29;20050;-87
2022/07/19 09:07:09;;;;;;;4.30;0.30;;;29.60;39.80;;;;;;4773461;29;20082;-86
2022/07/19 09:09:37;;;;;;;2.45;0.20;;;29.70;39.60;;;;;;4760746;29;20048;-84
2022/07/19 09:12:05;;;;;;;7.18;0.40;;;29.70;40.70;;;;;;4759533;29;20182;-83
2022/07/19 09:14:39;;;;;;;2.65;0.20;;;29.90;40.00;;;;;;4776587;29;20079;-87
2022/07/19 09:17:19;;;;;;;1.52;0.30;;;29.90;39.10;;;;;;4775933;29;20066;-88
2022/07/19 09:19:49;;;;;;;0.90;0.20;;;29.90;38.20;;;;;;4758425;29;20055;-83
2022/07/19 09:22:19;;;;;;;3.83;0.40;;;29.60;38.00;;;;;;4759580;29;20059;-85
2022/07/19 09:24:50;;;;;;;333.52;25.38;;;29.80;39.80;;;;;;4746639;30;20063;-85
2022/07/19 09:27:22;;;;;;;0.80;0.28;;;29.90;39.10;;;;;;4765842;30;20055;-86
2022/07/19 09:29:54;;;;;;;1.05;0.22;;;29.90;38.50;;;;;;4743332;30;20058;-85
2022/07/19 09:32:24;;;;;;;3.00;0.28;;;30.00;39.50;;;;;;4747246;29;20067;-87
2022/07/19 09:34:55;;;;;;;5.28;0.40;;;30.20;40.60;;;;;;4758926;30;20095;-91
2022/07/19 09:37:25;;;;;;;1.47;0.47;;;30.30;38.70;;;;;;4757827;29;20056;-88
2022/07/19 09:39:55;;;;;;;29.30;2.38;;;29.90;37.90;;;;;;4774528;29;20059;-84
2022/07/19 09:42:41;;;;;;;1.77;0.20;;;29.80;39.60;;;;;;4754073;30;20155;-86
2022/07/19 09:45:13;;;;;;;1.65;0.40;;;30.00;39.20;;;;;;4752845;30;20151;-85
2022/07/19 09:47:46;;;;;;;1.35;0.10;;;30.20;39.50;;;;;;4773161;29;20104;-87
2022/07/19 09:50:16;;;;;;;2.30;0.20;;;30.10;38.10;;;;;;4760202;30;20063;-89
2022/07/19 09:52:46;;;;;;;2.72;0.30;;;30.10;38.40;;;;;;4747826;30;20141;-90
2022/07/19 09:55:17;;;;;;;1.73;0.63;;;30.00;39.40;;;;;;4762612;30;20813;-87
2022/07/19 09:57:47;;;;;;;3.15;0.20;;;30.00;38.90;;;;;;4759780;30;20059;-85
2022/07/19 10:00:17;;;;;;;3.90;0.30;;;30.10;40.20;;;;;;4763165;30;20146;-85
2022/07/19 10:02:53;;;;;;;5.45;0.20;;;30.00;38.30;;;;;;4756300;29;20055;-83
2022/07/19 10:05:22;;;;;;;1.00;0.20;;;30.00;39.50;;;;;;4772187;29;20055;-84
2022/07/19 10:07:50;;;;;;;0.73;0.20;;;30.10;38.50;;;;;;4760021;30;20051;-85
2022/07/19 10:10:20;;;;;;;147.00;15.45;;;30.20;40.10;;;;;;4755924;30;20067;-84
2022/07/19 10:12:48;;;;;;;62.63;4.85;;;30.40;40.00;;;;;;4743308;30;20070;-82
2022/07/19 10:15:17;;;;;;;1.70;0.20;;;30.60;39.60;;;;;;4749926;30;20162;-84
2022/07/19 10:18:08;;;;;;;4.05;0.57;;;30.50;38.30;;;;;;4760888;30;20062;-87
2022/07/19 10:20:37;;;;;;;2.67;0.30;;;30.30;38.10;;;;;;4792942;29;20146;-85
2022/07/19 10:23:05;;;;;;;4.15;0.40;;;30.30;38.50;;;;;;4752429;30;20061;-84
2022/07/19 10:25:42;;;;;;;0.80;0.10;;;30.40;39.00;;;;;;4755581;30;20066;-85
2022/07/19 10:28:36;;;;;;;1.40;0.15;;;30.50;38.80;;;;;;4787535;29;20053;-86
2022/07/19 10:31:30;;;;;;;2.10;0.30;;;30.50;39.40;;;;;;4761224;29;20067;-84
2022/07/19 10:34:04;;;;;;;2.20;0.20;;;30.50;39.80;;;;;;4747530;29;20639;-83
2022/07/19 10:36:34;;;;;;;2.38;0.20;;;30.50;40.20;;;;;;4762406;29;20243;-83
2022/07/19 10:39:24;;;;;;;2.33;0.20;;;30.50;39.30;;;;;;4747927;29;20059;-85
2022/07/19 10:42:08;;;;;;;1.52;0.63;;;30.50;38.50;;;;;;4731420;30;20103;-84
2022/07/19 10:44:56;;;;;;;1.52;0.20;;;30.40;38.00;;;;;;4778952;29;20071;-85
2022/07/19 10:47:37;;;;;;;1.52;0.17;;;30.50;39.90;;;;;;4752115;29;20059;-84
2022/07/19 10:50:14;;;;;;;2.17;0.40;;;30.40;39.10;;;;;;4776799;29;20063;-83
2022/07/19 10:52:42;;;;;;;2.05;0.30;;;30.60;39.60;;;;;;4777900;29;20051;-85
2022/07/19 10:55:20;;;;;;;1.88;0.60;;;30.50;39.30;;;;;;4743603;29;20062;-79
2022/07/19 10:57:50;;;;;;;2.63;0.30;;;30.30;38.50;;;;;;4744137;30;20062;-80
2022/07/19 11:00:20;;;;;;;0.97;0.20;;;30.40;39.40;;;;;;4735689;30;20067;-82
2022/07/19 11:02:49;;;;;;;2.17;0.22;;;30.50;39.00;;;;;;4739165;30;20063;-82
2022/07/19 11:05:24;;;;;;;1.65;0.60;;;30.50;38.60;;;;;;4740387;29;20169;-82
2022/07/19 11:07:55;;;;;;;1.85;0.30;;;30.50;38.70;;;;;;4756652;29;20055;-81
2022/07/19 11:10:28;;;;;;;2.45;0.30;;;30.40;37.60;;;;;;4732997;29;20063;-82
2022/07/19 11:12:57;;;;;;;1.90;0.20;;;30.50;38.70;;;;;;4743958;30;20063;-86
2022/07/19 11:15:27;;;;;;;2.20;0.25;;;30.70;38.40;;;;;;4740137;30;22159;-82
2022/07/19 11:18:07;;;;;;;2.90;0.20;;;30.60;39.60;;;;;;4739384;29;20051;-82
2022/07/19 11:20:36;;;;;;;3.83;0.30;;;30.80;39.00;;;;;;4735864;29;20087;-80
2022/07/19 11:23:04;;;;;;;1.40;0.40;;;30.80;39.50;;;;;;4726879;30;20517;-81
2022/07/19 11:25:40;;;;;;;4.60;0.22;;;30.80;38.70;;;;;;4771764;29;20059;-80
2022/07/19 11:28:23;;;;;;;1.05;0.20;;;30.80;38.10;;;;;;4724544;30;20059;-80
2022/07/19 11:30:51;;;;;;;2.47;0.45;;;30.80;38.20;;;;;;4742869;30;20063;-82
2022/07/19 11:33:20;;;;;;;1.92;0.20;;;30.90;38.60;;;;;;4740557;30;20047;-80
2022/07/19 11:35:59;;;;;;;0.70;0.20;;;30.90;38.40;;;;;;4768202;29;20070;-81
2022/07/19 11:38:43;;;;;;;3.42;0.20;;;30.90;38.60;;;;;;4746250;29;20055;-81
2022/07/19 11:41:21;;;;;;;0.98;0.32;;;30.90;37.40;;;;;;4742146;30;20051;-78
2022/07/19 11:43:56;;;;;;;1.60;0.30;;;30.70;37.80;;;;;;4739409;30;20074;-81
2022/07/19 11:46:34;;;;;;;1.67;0.20;;;30.60;38.80;;;;;;4755989;29;20090;-82
2022/07/19 11:49:04;;;;;;;2.03;0.28;;;30.70;38.80;;;;;;4757394;29;20062;-80
2022/07/19 11:51:33;;;;;;;0.40;0.20;;;30.70;38.60;;;;;;4774362;29;20091;-80
2022/07/19 11:54:02;;;;;;;2.65;0.20;;;30.90;38.60;;;;;;4742258;30;20864;-80
2022/07/19 11:56:31;;;;;;;1.08;0.20;;;30.90;38.50;;;;;;4756991;29;20115;-81
2022/07/19 11:59:02;;;;;;;5.93;0.35;;;30.80;37.70;;;;;;4728178;29;20417;-82
2022/07/19 12:01:35;;;;;;;2.55;0.40;;;30.80;38.50;;;;;;4758886;29;20055;-82
2022/07/19 12:04:08;;;;;;;0.68;0.20;;;30.90;39.60;;;;;;4746112;30;20055;-82
2022/07/19 12:06:36;;;;;;;1.02;0.30;;;31.10;38.20;;;;;;4753757;29;20071;-82
2022/07/19 12:09:13;;;;;;;0.57;0.20;;;30.90;37.40;;;;;;4789602;29;20086;-84
2022/07/19 12:11:46;;;;;;;4.47;0.30;;;30.80;38.40;;;;;;4755692;30;20066;-84
2022/07/19 12:14:34;;;;;;;1.52;0.13;;;30.80;39.60;;;;;;4754066;30;20500;-82
2022/07/19 12:17:31;;;;;;;1.27;0.17;;;30.80;37.10;;;;;;4745003;30;20066;-83
2022/07/19 12:20:10;;;;;;;2.38;0.40;;;30.70;38.30;;;;;;4744215;29;20051;-83
2022/07/19 12:23:14;;;;;;;4.28;0.30;;;30.80;38.50;;;;;;4741542;30;20058;-83
2022/07/19 12:25:42;;;;;;;2.30;0.38;;;30.90;38.80;;;;;;4748754;30;20067;-82
2022/07/19 12:28:09;;;;;;;0.60;0.20;;;31.00;38.20;;;;;;4747015;30;20103;-82
2022/07/19 12:30:37;;;;;;;2.08;0.20;;;31.00;38.50;;;;;;4731590;30;20055;-83
2022/07/19 12:33:09;;;;;;;2.92;0.30;;;31.10;39.00;;;;;;4747043;30;20055;-82
2022/07/19 12:35:47;;;;;;;1.85;0.75;;;31.10;38.70;;;;;;4751729;29;20051;-82
2022/07/19 12:38:15;;;;;;;3.13;0.20;;;31.00;37.60;;;;;;4742934;30;20055;-82
2022/07/19 12:40:43;;;;;;;3.95;0.20;;;31.10;38.60;;;;;;4748541;29;20063;-83
2022/07/19 12:43:14;;;;;;;4.22;0.30;;;31.00;38.10;;;;;;4739534;30;20429;-82
2022/07/19 12:45:46;;;;;;;2.05;0.63;;;30.90;38.00;;;;;;4751510;30;20075;-83
2022/07/19 12:48:16;;;;;;;1.83;0.20;;;31.00;39.50;;;;;;4753692;29;20147;-83
2022/07/19 12:50:48;;;;;;;2.70;0.20;;;31.10;38.60;;;;;;4750648;30;20059;-84
2022/07/19 12:53:17;;;;;;;2.47;0.20;;;31.10;39.70;;;;;;4776967;29;20051;-83
2022/07/19 12:55:45;;;;;;;1.92;0.22;;;31.30;39.00;;;;;;4747074;30;20153;-82
2022/07/19 12:59:38;;;;;;;1.98;0.10;;;31.20;38.50;;;;;;4753198;30;22626;-83
2022/07/19 13:01:05;;;;;;;1.35;0.30;;;31.30;38.70;;;;;;4772643;29;20055;-84
2022/07/19 13:03:34;;;;;;;2.53;0.50;;;31.20;38.40;;;;;;4756326;30;20055;-84
2022/07/19 13:06:01;;;;;;;1.08;0.22;;;31.10;38.60;;;;;;4754134;30;20063;-87
2022/07/19 13:08:29;;;;;;;1.00;0.20;;;31.20;37.60;;;;;;4737557;30;20245;-83
2022/07/19 13:10:58;;;;;;;3.20;0.55;;;31.20;39.30;;;;;;4741629;29;20059;-84
2022/07/19 13:13:26;;;;;;;1.55;0.40;;;31.20;38.50;;;;;;4756340;30;20079;-82
2022/07/19 13:15:53;;;;;;;2.97;0.20;;;31.30;38.80;;;;;;4753654;30;20074;-84
2022/07/19 13:18:21;;;;;;;1.50;0.22;;;31.30;38.00;;;;;;4724352;29;20066;-83
2022/07/19 13:20:48;;;;;;;4.78;0.52;;;31.30;37.20;;;;;;4767859;29;20124;-83
2022/07/19 13:23:17;;;;;;;2.85;0.35;;;31.40;38.50;;;;;;4753776;29;20056;-84
2022/07/19 13:25:44;;;;;;;1.48;0.30;;;31.40;37.40;;;;;;4756557;30;20478;-84
2022/07/19 13:28:13;;;;;;;1.75;0.25;;;31.40;37.80;;;;;;4754388;30;20150;-84
2022/07/19 13:30:40;;;;;;;1.15;0.20;;;31.30;38.10;;;;;;4733457;30;20063;-84
2022/07/19 13:33:10;;;;;;;1.75;0.20;;;31.50;38.30;;;;;;4749221;29;20070;-83
2022/07/19 13:35:38;;;;;;;2.38;0.30;;;31.50;38.80;;;;;;4753531;29;20094;-83
2022/07/19 13:38:07;;;;;;;2.28;0.20;;;31.60;38.00;;;;;;4776415;29;20051;-82
2022/07/19 13:40:34;;;;;;;1.73;0.28;;;31.60;39.00;;;;;;4749129;29;20174;-85
2022/07/19 13:43:02;;;;;;;3.17;0.20;;;31.60;38.30;;;;;;4734015;30;20079;-84
2022/07/19 13:45:30;;;;;;;1.40;0.22;;;31.60;38.40;;;;;;4769483;29;20160;-84
2022/07/19 13:47:57;;;;;;;2.60;0.30;;;31.60;38.20;;;;;;4779139;29;20067;-83
2022/07/19 13:50:29;;;;;;;0.82;0.20;;;31.60;38.90;;;;;;4756950;29;20097;-83
2022/07/19 13:52:58;;;;;;;1.60;0.30;;;31.60;38.30;;;;;;4749873;29;20071;-82
2022/07/19 13:55:26;;;;;;;1.98;0.50;;;31.60;38.50;;;;;;4727962;29;20058;-82
2022/07/19 13:57:53;;;;;;;1.48;0.20;;;31.60;38.70;;;;;;4776528;29;20066;-85
2022/07/19 14:00:21;;;;;;;1.38;0.30;;;31.60;39.30;;;;;;4772440;29;20059;-81
2022/07/19 14:02:48;;;;;;;1.55;0.20;;;31.60;37.70;;;;;;4753609;29;20051;-82
2022/07/19 14:05:17;;;;;;;5.10;0.75;;;31.60;38.10;;;;;;4751221;29;20058;-83
2022/07/19 14:07:44;;;;;;;2.05;0.30;;;31.70;38.30;;;;;;4751756;30;20748;-84
2022/07/19 14:10:12;;;;;;;2.15;0.20;;;31.70;38.20;;;;;;4744643;29;20059;-82
2022/07/19 14:12:39;;;;;;;2.50;0.40;;;31.60;37.30;;;;;;4752319;30;20055;-82
2022/07/19 14:15:08;;;;;;;1.25;0.30;;;31.50;38.50;;;;;;4784608;29;20958;-83
2022/07/19 14:17:36;;;;;;;0.82;0.73;;;31.60;38.50;;;;;;4749478;30;20433;-83
2022/07/19 14:20:05;;;;;;;1.55;0.30;;;31.60;38.90;;;;;;4736475;30;20043;-83
2022/07/19 14:22:32;;;;;;;0.98;0.30;;;31.60;38.20;;;;;;4755767;30;20062;-83
2022/07/19 14:25:00;;;;;;;1.48;0.30;;;31.50;37.80;;;;;;4749558;30;20055;-82
2022/07/19 14:27:27;;;;;;;0.82;0.35;;;31.40;38.40;;;;;;4779473;29;20059;-80
2022/07/19 14:29:55;;;;;;;1.13;0.20;;;31.40;38.20;;;;;;4741748;30;20428;-81
2022/07/19 14:32:22;;;;;;;0.80;0.30;;;31.30;37.70;;;;;;4744510;29;20737;-80
2022/07/19 14:34:50;;;;;;;1.00;0.30;;;31.30;38.50;;;;;;4744585;29;20070;-81
2022/07/19 14:37:17;;;;;;;1.67;0.30;;;31.30;38.70;;;;;;4746821;29;20062;-84
2022/07/19 14:39:45;;;;;;;1.85;0.30;;;31.20;38.40;;;;;;4756494;29;20055;-84
2022/07/19 14:42:15;;;;;;;1.90;0.30;;;31.20;39.00;;;;;;4771893;29;20124;-82
2022/07/19 14:44:43;;;;;;;4.30;0.40;;;31.20;39.70;;;;;;4752656;30;20070;-83
2022/07/19 14:47:11;;;;;;;2.10;0.30;;;31.20;39.20;;;;;;4757651;30;20102;-84
2022/07/19 14:49:38;;;;;;;2.75;0.30;;;31.20;39.10;;;;;;4751984;30;20059;-84
2022/07/19 14:52:06;;;;;;;0.65;0.25;;;31.20;39.30;;;;;;4727335;30;20504;-85
2022/07/19 14:54:34;;;;;;;1.35;0.30;;;31.20;39.10;;;;;;4749768;30;20048;-85
2022/07/19 14:57:01;;;;;;;0.85;0.30;;;31.20;39.00;;;;;;4746887;30;20098;-84
2022/07/19 14:59:29;;;;;;;2.58;0.30;;;31.10;39.40;;;;;;4739254;30;20501;-82
2022/07/19 15:01:56;;;;;;;3.28;0.50;;;31.10;39.20;;;;;;4744836;30;20059;-81
2022/07/19 15:04:26;;;;;;;1.45;0.22;;;31.00;38.80;;;;;;4746711;30;20043;-79
2022/07/19 15:06:53;;;;;;;2.30;0.30;;;31.00;38.70;;;;;;4757483;30;20078;-83
2022/07/19 15:09:21;;;;;;;1.80;0.20;;;31.00;38.90;;;;;;4784582;29;20055;-84
2022/07/19 15:11:48;;;;;;;3.20;0.35;;;31.00;39.40;;;;;;4724992;29;20240;-81
2022/07/19 15:14:16;;;;;;;2.80;0.40;;;30.90;39.60;;;;;;4744207;29;20534;-81
2022/07/19 15:16:44;;;;;;;2.28;0.30;;;30.90;39.30;;;;;;4744030;29;20055;-83
2022/07/19 15:19:11;;;;;;;2.97;0.65;;;30.80;39.40;;;;;;4741353;30;20055;-83
2022/07/19 15:21:39;;;;;;;1.75;0.30;;;30.80;39.50;;;;;;4742081;29;20058;-81
2022/07/19 15:24:06;;;;;;;1.65;0.30;;;30.80;39.60;;;;;;4765346;29;20059;-82
2022/07/19 15:26:34;;;;;;;1.65;0.25;;;30.70;39.50;;;;;;4716059;29;20086;-82
2022/07/19 15:29:01;;;;;;;3.53;0.30;;;30.70;39.30;;;;;;4749764;29;20056;-81
2022/07/19 15:31:29;;;;;;;1.88;0.30;;;30.70;39.30;;;;;;4725753;30;20059;-82